Time;durP1;ratioP1;P1;durP2;ratioP2;P2;SDS_P1;SDS_P2;PMS_P1;PMS_P2;Temp;Humidity;BMP_temperature;BMP_pressure;BME280_temperature;BME280_humidity;BME280_pressure;Samples;Min_cycle;Max_cycle;Signal;HPM_P1;HPM_P2
2022/11/09 00:02:08;;;;;;;6.75;0.60;;;13.00;99.90;;;;;;5071144;28;20431;-75
2022/11/09 00:04:34;;;;;;;5.88;0.80;;;13.00;99.90;;;;;;5052350;28;20042;-76
2022/11/09 00:07:00;;;;;;;5.38;0.68;;;13.10;99.90;;;;;;5050813;28;20024;-75
2022/11/09 00:09:26;;;;;;;8.45;1.00;;;13.10;99.90;;;;;;5071603;28;20485;-75
2022/11/09 00:11:53;;;;;;;6.57;0.88;;;13.00;99.90;;;;;;5070945;28;20048;-75
2022/11/09 00:14:19;;;;;;;2.92;0.70;;;13.00;99.90;;;;;;5071242;28;20092;-75
2022/11/09 00:16:44;;;;;;;5.97;0.95;;;13.00;99.90;;;;;;5070273;28;20119;-76
2022/11/09 00:19:12;;;;;;;6.53;0.90;;;13.00;99.90;;;;;;5051812;28;20472;-75
2022/11/09 00:21:37;;;;;;;7.43;0.85;;;12.90;99.90;;;;;;5054075;28;20070;-75
2022/11/09 00:24:04;;;;;;;7.70;0.70;;;12.90;99.90;;;;;;5048545;28;20029;-76
2022/11/09 00:26:29;;;;;;;6.03;0.70;;;12.90;99.90;;;;;;5070402;28;20024;-75
2022/11/09 00:28:55;;;;;;;5.38;0.95;;;13.00;99.90;;;;;;5068774;28;20087;-75
2022/11/09 00:31:22;;;;;;;2.58;0.73;;;13.00;99.90;;;;;;5066394;28;20021;-75
2022/11/09 00:33:52;;;;;;;3.95;0.60;;;13.00;99.90;;;;;;5068969;28;20043;-76
2022/11/09 00:36:19;;;;;;;3.30;0.70;;;13.00;99.90;;;;;;5070938;28;20059;-75
2022/11/09 00:38:50;;;;;;;9.55;0.75;;;13.00;99.90;;;;;;5067010;28;20055;-75
2022/11/09 00:41:15;;;;;;;3.28;0.70;;;13.10;99.90;;;;;;5070543;28;20067;-75
2022/11/09 00:43:41;;;;;;;7.00;0.80;;;13.10;99.90;;;;;;5070994;28;20488;-75
2022/11/09 00:46:07;;;;;;;6.45;0.60;;;13.00;99.90;;;;;;5070216;28;20047;-75
2022/11/09 00:48:33;;;;;;;5.18;0.90;;;13.10;99.90;;;;;;5069972;28;20383;-75
2022/11/09 00:50:59;;;;;;;4.82;0.75;;;13.10;99.90;;;;;;5053756;28;20028;-75
2022/11/09 00:53:25;;;;;;;5.75;0.70;;;13.10;99.90;;;;;;5070381;28;20492;-75
2022/11/09 00:55:55;;;;;;;5.15;0.85;;;13.10;99.90;;;;;;5069365;28;20040;-75
2022/11/09 00:58:20;;;;;;;4.13;0.70;;;13.20;99.90;;;;;;5053797;28;20480;-75
2022/11/09 01:00:46;;;;;;;5.50;0.70;;;13.20;99.90;;;;;;5055499;28;20033;-75
2022/11/09 01:03:12;;;;;;;3.90;0.73;;;13.30;99.90;;;;;;5066104;28;20059;-75
2022/11/09 01:05:41;;;;;;;4.65;0.85;;;13.30;99.90;;;;;;5073475;28;20033;-75
2022/11/09 01:08:06;;;;;;;7.68;0.80;;;13.40;99.90;;;;;;5073044;28;20029;-75
2022/11/09 01:10:33;;;;;;;11.02;1.38;;;13.40;99.90;;;;;;5074186;28;20047;-75
2022/11/09 01:12:59;;;;;;;5.72;1.48;;;13.30;99.90;;;;;;5072899;28;20036;-75
2022/11/09 01:15:25;;;;;;;7.75;1.15;;;13.40;99.90;;;;;;5072505;28;20029;-76
2022/11/09 01:17:51;;;;;;;7.13;1.10;;;13.30;99.90;;;;;;5073479;28;20028;-76
2022/11/09 01:20:16;;;;;;;8.02;0.95;;;13.30;99.90;;;;;;5056385;28;20109;-75
2022/11/09 01:22:42;;;;;;;5.90;0.73;;;13.30;99.90;;;;;;5073521;28;20103;-76
2022/11/09 01:25:08;;;;;;;7.85;1.15;;;13.30;99.90;;;;;;5072778;28;20031;-76
2022/11/09 01:27:34;;;;;;;5.43;1.02;;;13.20;99.90;;;;;;5074128;28;20546;-76
2022/11/09 01:30:00;;;;;;;4.00;0.80;;;13.20;99.90;;;;;;5073031;28;20511;-76
2022/11/09 01:32:26;;;;;;;7.53;1.00;;;13.30;99.90;;;;;;5056532;28;20064;-76
2022/11/09 01:34:51;;;;;;;6.32;1.10;;;13.20;99.90;;;;;;5072243;28;20107;-76
2022/11/09 01:37:17;;;;;;;5.63;0.85;;;13.10;99.90;;;;;;5054821;28;20024;-76
2022/11/09 01:39:43;;;;;;;6.97;1.15;;;13.00;99.90;;;;;;5071076;28;20050;-76
2022/11/09 01:42:08;;;;;;;4.07;1.00;;;13.00;99.90;;;;;;5051552;28;20032;-76
2022/11/09 01:44:37;;;;;;;9.30;1.20;;;13.00;99.90;;;;;;5055531;28;20380;-76
2022/11/09 01:47:14;;;;;;;5.72;1.25;;;13.00;99.90;;;;;;5073653;28;20031;-76
2022/11/09 01:49:51;;;;;;;8.35;1.27;;;13.10;99.90;;;;;;5074318;28;20028;-76
2022/11/09 01:52:23;;;;;;;5.75;1.10;;;13.00;99.90;;;;;;5056065;28;20037;-76
2022/11/09 01:54:53;;;;;;;6.30;1.23;;;13.00;99.90;;;;;;5053309;28;20094;-76
2022/11/09 01:57:28;;;;;;;5.35;0.90;;;13.00;99.90;;;;;;5072911;28;20129;-76
2022/11/09 01:59:58;;;;;;;4.45;0.88;;;13.00;99.90;;;;;;5056062;28;20042;-76
2022/11/09 02:02:24;;;;;;;5.18;0.70;;;13.00;99.90;;;;;;5055232;28;20021;-76
2022/11/09 02:04:55;;;;;;;4.35;1.00;;;12.90;99.90;;;;;;5071574;28;20025;-76
2022/11/09 02:07:22;;;;;;;4.72;0.77;;;12.90;99.90;;;;;;5071396;28;20028;-76
2022/11/09 02:10:10;;;;;;;5.68;0.85;;;12.80;99.90;;;;;;5072821;28;20063;-76
2022/11/09 02:12:35;;;;;;;3.85;0.90;;;12.80;99.90;;;;;;5073725;28;20087;-76
2022/11/09 02:15:04;;;;;;;4.35;0.80;;;12.70;99.90;;;;;;5071476;28;20032;-76
2022/11/09 02:17:30;;;;;;;4.10;0.95;;;12.70;99.90;;;;;;5059976;28;20104;-76
2022/11/09 02:19:59;;;;;;;6.85;0.70;;;12.70;99.90;;;;;;5060710;28;20119;-76
2022/11/09 02:22:25;;;;;;;2.85;0.70;;;12.70;99.90;;;;;;5068986;28;20023;-76
2022/11/09 02:24:51;;;;;;;5.22;0.73;;;12.70;99.90;;;;;;5070515;28;20020;-76
2022/11/09 02:27:18;;;;;;;5.70;0.70;;;12.70;99.90;;;;;;5072831;28;20036;-76
2022/11/09 02:29:47;;;;;;;7.32;0.68;;;12.70;99.90;;;;;;5072526;28;20103;-76
2022/11/09 02:32:23;;;;;;;5.28;0.60;;;12.70;99.90;;;;;;5073901;28;20128;-76
2022/11/09 02:34:49;;;;;;;7.60;0.90;;;12.70;99.90;;;;;;5073624;28;20530;-76
2022/11/09 02:37:33;;;;;;;4.97;0.95;;;12.70;99.90;;;;;;5073011;28;20107;-76
2022/11/09 02:39:59;;;;;;;5.47;0.90;;;12.70;99.90;;;;;;5069936;28;20107;-76
2022/11/09 02:42:25;;;;;;;4.60;0.70;;;12.70;99.90;;;;;;5073437;28;20021;-76
2022/11/09 02:44:55;;;;;;;8.82;1.05;;;12.70;99.90;;;;;;5073399;28;20350;-76
2022/11/09 02:47:21;;;;;;;5.97;0.65;;;12.70;99.90;;;;;;5054216;28;20484;-76
2022/11/09 02:49:46;;;;;;;5.65;0.82;;;12.80;99.90;;;;;;5045787;28;20079;-76
2022/11/09 02:52:12;;;;;;;10.43;1.63;;;12.80;99.90;;;;;;5044440;28;20052;-76
2022/11/09 02:54:37;;;;;;;6.05;0.88;;;12.80;99.90;;;;;;5070046;28;20044;-76
2022/11/09 02:57:03;;;;;;;4.20;0.50;;;12.80;99.90;;;;;;5071076;28;20016;-76
2022/11/09 02:59:28;;;;;;;4.82;0.50;;;12.80;99.90;;;;;;5073340;28;20053;-76
2022/11/09 03:01:54;;;;;;;7.75;0.70;;;12.80;99.90;;;;;;5071020;28;20192;-76
2022/11/09 03:04:19;;;;;;;4.57;0.80;;;12.80;99.90;;;;;;5071954;28;20107;-76
2022/11/09 03:06:45;;;;;;;3.22;0.57;;;12.70;99.90;;;;;;5071841;28;20494;-76
2022/11/09 03:09:11;;;;;;;3.45;0.68;;;12.70;99.90;;;;;;5053385;28;20445;-76
2022/11/09 03:11:41;;;;;;;8.55;0.80;;;12.70;99.90;;;;;;5052678;28;20036;-76
2022/11/09 03:14:08;;;;;;;6.68;0.80;;;12.70;99.90;;;;;;5044396;28;20123;-76
2022/11/09 03:16:38;;;;;;;6.60;0.63;;;12.60;99.90;;;;;;5037754;28;20028;-76
2022/11/09 03:19:04;;;;;;;9.32;0.70;;;12.60;99.90;;;;;;5071154;28;20029;-76
2022/11/09 03:21:30;;;;;;;6.53;0.68;;;12.70;99.90;;;;;;5070839;28;20024;-76
2022/11/09 03:23:55;;;;;;;3.72;1.02;;;12.70;99.90;;;;;;5064469;28;20041;-76
2022/11/09 03:26:21;;;;;;;7.75;0.80;;;12.70;99.90;;;;;;5072759;28;20025;-75
2022/11/09 03:28:47;;;;;;;6.68;0.60;;;12.70;99.90;;;;;;5074732;28;20039;-75
2022/11/09 03:31:12;;;;;;;7.63;0.88;;;12.70;99.90;;;;;;5071526;28;20071;-75
2022/11/09 03:33:38;;;;;;;5.90;0.82;;;12.70;99.90;;;;;;5070641;28;20127;-75
2022/11/09 03:36:05;;;;;;;6.97;0.70;;;12.60;99.90;;;;;;5070514;28;20103;-75
2022/11/09 03:38:30;;;;;;;3.83;0.60;;;12.60;99.90;;;;;;5068795;28;20044;-76
2022/11/09 03:40:58;;;;;;;6.72;0.98;;;12.60;99.90;;;;;;5067644;28;20473;-77
2022/11/09 03:43:24;;;;;;;3.15;0.50;;;12.60;99.90;;;;;;5065159;28;20123;-75
2022/11/09 03:45:49;;;;;;;6.47;0.60;;;12.60;99.90;;;;;;5050328;28;20115;-74
2022/11/09 03:48:15;;;;;;;5.25;0.73;;;12.60;99.90;;;;;;5069407;28;20423;-75
2022/11/09 03:50:41;;;;;;;5.47;0.60;;;12.60;99.90;;;;;;5060285;28;20035;-75
2022/11/09 03:53:08;;;;;;;7.22;0.60;;;12.60;99.90;;;;;;5051957;28;20037;-75
2022/11/09 03:55:34;;;;;;;5.68;0.50;;;12.60;99.90;;;;;;5041473;28;20386;-75
2022/11/09 03:58:00;;;;;;;7.47;0.60;;;12.60;99.90;;;;;;5070220;28;20036;-76
2022/11/09 04:00:26;;;;;;;7.80;0.60;;;12.70;99.90;;;;;;5069074;28;20021;-74
2022/11/09 04:02:52;;;;;;;6.38;0.70;;;12.70;99.90;;;;;;5069702;28;20031;-76
2022/11/09 04:05:18;;;;;;;7.80;0.50;;;12.80;99.90;;;;;;5049513;28;20024;-75
2022/11/09 04:07:49;;;;;;;5.35;0.50;;;12.80;99.90;;;;;;5067283;28;20020;-75
2022/11/09 04:10:16;;;;;;;5.72;0.60;;;12.80;99.90;;;;;;5067107;28;20108;-75
2022/11/09 04:12:41;;;;;;;9.45;0.60;;;12.70;99.90;;;;;;5065780;28;20045;-76
2022/11/09 04:15:08;;;;;;;4.60;0.40;;;12.70;99.90;;;;;;5050879;28;20384;-76
2022/11/09 04:17:33;;;;;;;6.57;0.68;;;12.60;99.90;;;;;;5070841;28;20547;-76
2022/11/09 04:19:59;;;;;;;9.27;0.70;;;12.50;99.90;;;;;;5069206;28;20032;-76
2022/11/09 04:22:24;;;;;;;4.45;0.50;;;12.50;99.90;;;;;;5067826;28;20081;-76
2022/11/09 04:24:50;;;;;;;7.55;0.88;;;12.40;99.90;;;;;;5051123;28;20021;-76
2022/11/09 04:27:16;;;;;;;5.45;0.57;;;12.30;99.90;;;;;;5052074;28;20060;-76
2022/11/09 04:29:41;;;;;;;7.70;0.55;;;12.30;99.90;;;;;;5071679;28;20380;-76
2022/11/09 04:32:07;;;;;;;10.05;0.70;;;12.30;99.90;;;;;;5070299;28;20115;-76
2022/11/09 04:34:32;;;;;;;7.15;0.70;;;12.30;99.90;;;;;;5057272;28;20017;-76
2022/11/09 04:36:58;;;;;;;10.38;0.95;;;12.30;99.90;;;;;;5074163;28;20039;-77
2022/11/09 04:39:24;;;;;;;7.45;0.50;;;12.30;99.90;;;;;;5073192;28;20020;-76
2022/11/09 04:41:49;;;;;;;8.95;0.60;;;12.30;99.90;;;;;;5070640;28;20028;-75
2022/11/09 04:44:15;;;;;;;6.50;0.45;;;12.30;99.90;;;;;;5056839;28;20502;-76
2022/11/09 04:46:41;;;;;;;5.30;0.70;;;12.30;99.90;;;;;;5042870;28;20029;-76
2022/11/09 04:49:07;;;;;;;9.88;0.50;;;12.30;99.90;;;;;;5071072;28;20055;-76
2022/11/09 04:51:33;;;;;;;10.13;0.63;;;12.30;99.90;;;;;;5072002;28;20044;-75
2022/11/09 04:53:58;;;;;;;8.55;0.60;;;12.20;99.90;;;;;;5073754;28;20036;-76
2022/11/09 04:56:24;;;;;;;12.98;2.65;;;12.20;99.90;;;;;;5073125;28;20166;-75
2022/11/09 04:58:49;;;;;;;14.07;1.08;;;12.10;99.90;;;;;;5071887;28;20043;-75
2022/11/09 05:01:15;;;;;;;6.72;0.55;;;12.10;99.90;;;;;;5072839;28;20020;-75
2022/11/09 05:03:41;;;;;;;8.02;0.70;;;12.00;99.90;;;;;;5052543;28;20021;-75
2022/11/09 05:08:53;;;;;;;7.85;0.65;;;12.00;99.90;;;;;;5071472;28;20102;-77
2022/11/09 05:11:19;;;;;;;8.52;0.70;;;11.90;99.90;;;;;;5054991;28;20032;-76
2022/11/09 05:13:44;;;;;;;9.25;0.98;;;11.90;99.90;;;;;;5071468;28;20033;-75
2022/11/09 05:16:10;;;;;;;7.43;0.50;;;11.90;99.90;;;;;;5047165;28;20035;-75
2022/11/09 05:18:36;;;;;;;8.55;0.60;;;11.80;99.90;;;;;;5049089;28;20056;-75
2022/11/09 05:21:03;;;;;;;9.57;0.73;;;11.80;99.90;;;;;;5072551;28;20032;-75
2022/11/09 05:26:12;;;;;;;8.30;0.70;;;11.70;99.90;;;;;;5069399;28;20039;-75
2022/11/09 05:28:38;;;;;;;11.05;0.50;;;11.70;99.90;;;;;;5055181;28;20024;-76
2022/11/09 05:31:04;;;;;;;11.60;0.77;;;11.70;99.90;;;;;;5052907;28;20104;-75
2022/11/09 05:33:30;;;;;;;10.85;1.33;;;11.70;99.90;;;;;;5070560;28;20044;-75
2022/11/09 05:35:56;;;;;;;15.18;0.68;;;11.70;99.90;;;;;;5071506;28;20099;-76
2022/11/09 05:38:23;;;;;;;7.00;0.57;;;11.70;99.90;;;;;;5056139;28;20028;-75
2022/11/09 05:40:50;;;;;;;10.77;0.90;;;11.70;99.90;;;;;;5055860;28;20379;-75
2022/11/09 05:43:16;;;;;;;8.35;0.90;;;11.70;99.90;;;;;;5070669;28;20025;-76
2022/11/09 05:45:43;;;;;;;10.23;0.70;;;11.60;99.90;;;;;;5054405;28;20051;-76
2022/11/09 05:48:13;;;;;;;6.25;0.77;;;11.60;99.90;;;;;;5066585;28;20557;-76
2022/11/09 05:50:40;;;;;;;8.50;0.60;;;11.70;99.90;;;;;;5050904;28;20025;-74
2022/11/09 05:53:06;;;;;;;7.03;0.70;;;11.60;99.90;;;;;;5071254;28;20475;-76
2022/11/09 05:55:32;;;;;;;7.95;0.90;;;11.70;99.90;;;;;;5073243;28;20059;-75
2022/11/09 05:57:57;;;;;;;8.93;0.60;;;11.70;99.90;;;;;;5073630;28;20373;-75
2022/11/09 06:00:23;;;;;;;8.45;0.73;;;11.60;99.90;;;;;;5051735;28;20075;-76
2022/11/09 06:02:49;;;;;;;7.97;0.60;;;11.60;99.90;;;;;;5073445;28;20391;-76
2022/11/09 06:05:15;;;;;;;9.43;0.85;;;11.60;99.90;;;;;;5072143;28;20016;-77
2022/11/09 06:07:41;;;;;;;9.20;0.80;;;11.60;99.90;;;;;;5070747;28;20108;-76
2022/11/09 06:10:08;;;;;;;6.93;0.75;;;11.60;99.90;;;;;;5069915;28;20032;-76
2022/11/09 06:12:34;;;;;;;11.05;1.00;;;11.50;99.90;;;;;;5070903;28;20041;-77
2022/11/09 06:14:59;;;;;;;7.07;0.80;;;11.60;99.90;;;;;;5062494;28;20089;-76
2022/11/09 06:17:25;;;;;;;6.45;0.70;;;11.50;99.90;;;;;;5071979;28;20082;-76
2022/11/09 06:19:51;;;;;;;11.40;0.98;;;11.50;99.90;;;;;;5066589;28;20420;-76
2022/11/09 06:22:16;;;;;;;9.55;0.60;;;11.50;99.90;;;;;;5073356;28;20031;-76
2022/11/09 06:24:42;;;;;;;5.68;0.50;;;11.40;99.90;;;;;;5064463;28;20404;-76
2022/11/09 06:27:08;;;;;;;7.28;0.50;;;11.40;99.90;;;;;;5066891;28;20032;-76
2022/11/09 06:29:33;;;;;;;7.88;0.80;;;11.30;99.90;;;;;;5067751;28;20029;-76
2022/11/09 06:31:59;;;;;;;8.05;0.80;;;11.30;99.90;;;;;;5068305;28;20037;-76
2022/11/09 06:34:26;;;;;;;10.10;0.93;;;11.30;99.90;;;;;;5048781;28;20072;-75
2022/11/09 06:36:52;;;;;;;14.40;0.77;;;11.30;99.90;;;;;;5037235;28;20056;-77
2022/11/09 06:39:18;;;;;;;7.63;0.80;;;11.30;99.90;;;;;;5071824;28;20107;-76
2022/11/09 06:41:43;;;;;;;11.07;0.88;;;11.30;99.90;;;;;;5061993;28;20031;-76
2022/11/09 06:44:09;;;;;;;7.22;0.70;;;11.20;99.90;;;;;;5063383;28;20039;-76
2022/11/09 06:46:34;;;;;;;11.00;0.68;;;11.20;99.90;;;;;;5060885;28;20469;-76
2022/11/09 06:49:00;;;;;;;7.60;0.60;;;11.20;99.90;;;;;;5047939;28;20021;-76
2022/11/09 06:51:26;;;;;;;13.40;0.70;;;11.20;99.90;;;;;;5055985;28;20035;-77
2022/11/09 06:53:52;;;;;;;8.43;0.65;;;11.20;99.90;;;;;;5065941;28;20391;-75
2022/11/09 06:56:17;;;;;;;14.75;1.20;;;11.10;99.90;;;;;;5061583;28;20476;-75
2022/11/09 06:58:43;;;;;;;5.57;0.50;;;11.10;99.90;;;;;;5046813;28;20082;-75
2022/11/09 07:01:10;;;;;;;6.85;0.88;;;11.10;99.90;;;;;;5063659;28;20028;-75
2022/11/09 07:03:37;;;;;;;8.82;0.80;;;11.10;99.90;;;;;;5067156;28;20028;-76
2022/11/09 07:06:05;;;;;;;9.05;0.90;;;11.10;99.90;;;;;;5064766;28;20020;-75
2022/11/09 07:08:31;;;;;;;8.07;0.77;;;11.10;99.90;;;;;;5060226;28;20090;-75
2022/11/09 07:11:05;;;;;;;10.43;0.80;;;11.10;99.90;;;;;;5046552;28;20025;-75
2022/11/09 07:13:31;;;;;;;11.88;1.23;;;11.10;99.90;;;;;;5048886;28;20110;-74
2022/11/09 07:15:57;;;;;;;10.48;0.73;;;11.10;99.90;;;;;;5049124;28;20029;-75
2022/11/09 07:18:23;;;;;;;7.13;0.60;;;11.10;99.90;;;;;;5062806;28;20027;-75
2022/11/09 07:20:50;;;;;;;10.45;0.90;;;11.10;99.90;;;;;;5060348;28;20052;-77
2022/11/09 07:23:15;;;;;;;7.97;0.80;;;11.10;99.90;;;;;;5065507;28;20508;-76
2022/11/09 07:25:41;;;;;;;10.52;1.08;;;11.10;99.90;;;;;;5067289;28;20024;-76
2022/11/09 07:28:09;;;;;;;9.25;0.90;;;11.10;99.90;;;;;;5063410;28;20025;-77
2022/11/09 07:30:36;;;;;;;10.45;0.70;;;11.20;99.90;;;;;;5062716;28;20419;-75
2022/11/09 07:33:02;;;;;;;12.15;0.90;;;11.20;99.90;;;;;;5054071;28;20459;-75
2022/11/09 07:35:28;;;;;;;12.10;0.90;;;11.20;99.90;;;;;;5054439;28;20034;-76
2022/11/09 07:37:59;;;;;;;12.90;1.17;;;11.20;99.90;;;;;;5051921;28;20033;-76
2022/11/09 07:40:24;;;;;;;8.35;0.93;;;11.30;99.90;;;;;;5047528;28;20021;-76
2022/11/09 07:42:50;;;;;;;11.90;0.73;;;11.30;99.90;;;;;;5041585;28;20087;-76
2022/11/09 07:45:15;;;;;;;5.35;0.70;;;11.30;99.90;;;;;;5060973;28;20104;-77
2022/11/09 07:47:41;;;;;;;10.95;1.38;;;11.40;99.90;;;;;;5056850;28;20025;-76
2022/11/09 07:50:07;;;;;;;8.95;0.90;;;11.40;99.90;;;;;;5047486;28;20063;-76
2022/11/09 07:52:33;;;;;;;12.00;1.10;;;11.40;99.90;;;;;;5070604;28;20097;-76
2022/11/09 07:54:58;;;;;;;8.55;0.98;;;11.40;99.90;;;;;;5063357;28;20506;-76
2022/11/09 07:57:24;;;;;;;9.30;0.98;;;11.50;99.90;;;;;;5071379;28;20058;-76
2022/11/09 07:59:52;;;;;;;10.57;0.80;;;11.50;99.90;;;;;;5064145;28;20097;-76
2022/11/09 08:02:18;;;;;;;7.88;0.90;;;11.50;99.90;;;;;;5042200;28;20370;-75
2022/11/09 08:04:43;;;;;;;7.95;1.27;;;11.50;99.90;;;;;;5066532;28;20035;-77
2022/11/09 08:07:09;;;;;;;14.23;1.48;;;11.60;99.90;;;;;;5054478;28;20500;-76
2022/11/09 08:09:34;;;;;;;10.30;0.85;;;11.60;99.90;;;;;;5051510;28;20480;-77
2022/11/09 08:12:00;;;;;;;6.95;0.75;;;11.70;99.90;;;;;;5057221;28;20037;-77
2022/11/09 08:14:26;;;;;;;8.13;0.63;;;11.70;99.90;;;;;;5057761;28;20384;-77
2022/11/09 08:16:52;;;;;;;6.82;0.90;;;11.80;99.90;;;;;;5073721;28;20024;-76
2022/11/09 08:19:17;;;;;;;15.02;0.90;;;11.90;99.90;;;;;;5062146;28;20020;-74
2022/11/09 08:21:43;;;;;;;10.15;0.60;;;11.90;99.90;;;;;;5056386;28;20422;-75
2022/11/09 08:24:09;;;;;;;9.20;0.68;;;12.00;99.90;;;;;;5071975;28;20039;-75
2022/11/09 08:26:34;;;;;;;7.85;0.70;;;12.10;99.90;;;;;;5069259;28;20023;-75
2022/11/09 08:29:00;;;;;;;5.97;0.60;;;12.20;99.90;;;;;;5055725;28;20074;-76
2022/11/09 08:31:26;;;;;;;9.68;0.80;;;12.30;99.90;;;;;;5071036;28;20021;-75
2022/11/09 08:33:52;;;;;;;8.10;0.70;;;12.30;99.90;;;;;;5073757;28;20036;-75
2022/11/09 08:36:17;;;;;;;9.40;1.05;;;12.40;99.90;;;;;;5073645;28;20049;-76
2022/11/09 08:38:44;;;;;;;6.60;0.60;;;12.40;99.90;;;;;;5072997;28;20078;-76
2022/11/09 08:41:11;;;;;;;7.60;0.90;;;12.50;99.90;;;;;;5055414;28;20039;-75
2022/11/09 08:43:38;;;;;;;6.45;0.70;;;12.60;99.90;;;;;;5055474;28;20025;-76
2022/11/09 08:46:04;;;;;;;7.47;1.05;;;12.60;99.90;;;;;;5056451;28;20150;-75
2022/11/09 08:48:30;;;;;;;9.30;0.85;;;12.60;99.90;;;;;;5072224;28;20482;-76
2022/11/09 08:50:58;;;;;;;10.18;1.13;;;12.70;99.90;;;;;;5054241;28;20484;-77
2022/11/09 08:53:25;;;;;;;6.03;0.70;;;12.70;99.90;;;;;;5055653;28;20040;-76
2022/11/09 08:55:51;;;;;;;8.75;0.85;;;12.80;99.90;;;;;;5073720;28;20036;-76
2022/11/09 08:58:18;;;;;;;6.05;0.70;;;12.80;99.90;;;;;;5074695;28;20139;-76
2022/11/09 09:00:44;;;;;;;10.45;0.85;;;12.90;99.90;;;;;;5073992;28;20028;-76
2022/11/09 09:03:09;;;;;;;9.63;0.98;;;12.90;99.90;;;;;;5056253;28;20033;-77
2022/11/09 09:05:36;;;;;;;13.80;1.00;;;13.00;99.90;;;;;;5074267;28;20028;-76
2022/11/09 09:08:03;;;;;;;9.18;0.70;;;13.10;99.90;;;;;;5055879;28;20449;-77
2022/11/09 09:10:31;;;;;;;7.20;0.90;;;13.20;99.90;;;;;;5054316;28;20056;-76
2022/11/09 09:12:57;;;;;;;9.77;0.80;;;13.20;99.90;;;;;;5056002;28;20060;-77
2022/11/09 09:15:23;;;;;;;11.15;1.00;;;13.10;99.90;;;;;;5055414;28;20059;-77
2022/11/09 09:17:49;;;;;;;10.13;1.50;;;13.10;99.90;;;;;;5053382;28;20536;-76
2022/11/09 09:20:16;;;;;;;9.20;1.08;;;13.10;99.90;;;;;;5073870;28;20027;-75
2022/11/09 09:22:43;;;;;;;11.02;1.10;;;13.10;99.90;;;;;;5072748;28;20073;-76
2022/11/09 09:25:08;;;;;;;7.68;0.80;;;13.10;99.90;;;;;;5072937;28;20024;-75
2022/11/09 09:27:34;;;;;;;8.93;0.82;;;13.20;99.90;;;;;;5073031;28;20029;-75
2022/11/09 09:30:00;;;;;;;7.78;0.70;;;13.20;99.90;;;;;;5055893;28;20021;-76
2022/11/09 09:32:26;;;;;;;7.90;1.00;;;13.30;99.90;;;;;;5054539;28;20091;-76
2022/11/09 09:34:51;;;;;;;11.20;0.93;;;13.30;99.90;;;;;;5067648;28;20025;-77
2022/11/09 09:37:18;;;;;;;6.65;0.65;;;13.30;99.90;;;;;;5069293;28;20028;-75
2022/11/09 09:39:43;;;;;;;11.45;0.68;;;13.40;99.90;;;;;;5056367;28;20115;-76
2022/11/09 09:42:41;;;;;;;7.10;0.68;;;13.40;99.90;;;;;;5056251;28;20140;-75
2022/11/09 09:45:19;;;;;;;11.15;0.70;;;13.50;99.90;;;;;;5046621;28;20120;-75
2022/11/09 09:48:04;;;;;;;9.60;0.95;;;13.50;99.90;;;;;;5072727;28;20369;-76
2022/11/09 09:50:44;;;;;;;6.63;0.60;;;13.60;99.90;;;;;;5036589;28;20044;-75
2022/11/09 09:53:15;;;;;;;10.75;0.75;;;13.70;99.90;;;;;;5054829;28;20458;-75
2022/11/09 09:55:49;;;;;;;9.27;0.60;;;13.70;99.90;;;;;;5072641;28;20044;-75
2022/11/09 09:58:24;;;;;;;7.72;0.88;;;13.70;99.90;;;;;;5073178;28;20033;-75
2022/11/09 10:00:58;;;;;;;10.00;0.90;;;13.70;99.90;;;;;;5069230;28;20476;-76
2022/11/09 10:03:24;;;;;;;8.57;1.15;;;13.80;99.90;;;;;;5055933;28;20090;-76
2022/11/09 10:06:21;;;;;;;10.80;0.80;;;13.80;99.90;;;;;;5074005;28;20016;-75
2022/11/09 10:09:24;;;;;;;9.18;1.10;;;13.70;99.90;;;;;;5055926;28;20107;-75
2022/11/09 10:12:09;;;;;;;4.13;0.50;;;13.70;99.90;;;;;;5054720;28;20035;-76
2022/11/09 10:14:54;;;;;;;8.63;0.82;;;13.60;99.90;;;;;;5057011;28;20035;-75
2022/11/09 10:17:27;;;;;;;9.60;1.52;;;13.60;99.90;;;;;;5050079;28;20031;-75
2022/11/09 10:20:30;;;;;;;8.50;0.60;;;13.70;99.90;;;;;;5054182;28;20035;-75
2022/11/09 10:23:06;;;;;;;9.95;0.50;;;13.90;99.90;;;;;;5068069;28;20038;-76
2022/11/09 10:25:37;;;;;;;10.52;0.60;;;14.00;99.90;;;;;;5073526;28;20155;-76
2022/11/09 10:28:11;;;;;;;5.68;0.50;;;14.20;99.90;;;;;;5058703;28;20035;-75
2022/11/09 10:30:37;;;;;;;6.68;0.52;;;14.20;99.90;;;;;;5077207;28;20488;-76
2022/11/09 10:33:09;;;;;;;10.65;0.70;;;14.30;99.90;;;;;;5073502;28;20036;-75
2022/11/09 10:35:44;;;;;;;8.82;0.80;;;14.30;99.90;;;;;;5055863;28;20028;-76
2022/11/09 10:38:16;;;;;;;9.40;0.73;;;14.30;99.90;;;;;;5061539;28;20029;-76
2022/11/09 10:40:52;;;;;;;10.48;0.70;;;14.30;99.90;;;;;;5073269;28;20074;-75
2022/11/09 10:43:19;;;;;;;8.52;0.68;;;14.30;99.90;;;;;;5070743;28;20085;-75
2022/11/09 10:46:06;;;;;;;6.65;0.57;;;14.30;99.90;;;;;;5072658;28;20043;-77
2022/11/09 10:48:37;;;;;;;4.95;0.50;;;14.40;99.90;;;;;;5052532;28;20017;-75
2022/11/09 10:51:03;;;;;;;8.38;0.70;;;14.40;99.90;;;;;;5061902;28;20090;-74
2022/11/09 10:53:33;;;;;;;5.13;0.50;;;14.50;99.90;;;;;;5047529;28;20044;-75
2022/11/09 10:56:15;;;;;;;5.28;0.45;;;14.50;99.90;;;;;;5051856;28;20047;-75
2022/11/09 10:58:52;;;;;;;6.43;0.53;;;14.50;99.90;;;;;;5064852;28;20040;-75
2022/11/09 11:01:22;;;;;;;3.40;0.50;;;14.50;99.90;;;;;;5046849;28;20024;-76
2022/11/09 11:03:53;;;;;;;9.38;0.68;;;14.50;99.90;;;;;;5048846;28;20108;-76
2022/11/09 11:06:21;;;;;;;7.28;0.40;;;14.50;99.90;;;;;;5071492;28;20032;-75
2022/11/09 11:08:51;;;;;;;7.95;0.90;;;14.40;99.90;;;;;;5073312;28;20013;-76
2022/11/09 11:11:26;;;;;;;8.43;0.50;;;14.40;99.90;;;;;;5072887;28;20078;-76
2022/11/09 11:14:19;;;;;;;10.07;0.70;;;14.30;99.90;;;;;;5052998;28;20438;-76
2022/11/09 11:16:46;;;;;;;6.00;0.60;;;14.40;99.90;;;;;;5059879;28;20466;-76
2022/11/09 11:19:30;;;;;;;9.18;0.50;;;14.30;99.90;;;;;;5052416;28;20044;-75
2022/11/09 11:22:26;;;;;;;5.97;0.65;;;14.20;99.90;;;;;;5067974;28;20033;-75
2022/11/09 11:24:51;;;;;;;3.50;0.50;;;14.20;99.90;;;;;;5072663;28;20033;-77
2022/11/09 11:27:24;;;;;;;4.72;0.50;;;14.20;99.90;;;;;;5050159;28;20031;-76
2022/11/09 11:29:53;;;;;;;8.52;0.77;;;14.10;99.90;;;;;;5070124;28;20025;-76
2022/11/09 11:32:19;;;;;;;6.78;0.50;;;14.10;99.90;;;;;;5070184;28;20472;-76
2022/11/09 11:34:46;;;;;;;8.27;0.60;;;14.20;99.90;;;;;;5071334;28;20060;-76
2022/11/09 11:37:30;;;;;;;9.98;0.77;;;14.30;99.90;;;;;;5068524;28;20483;-77
2022/11/09 11:40:11;;;;;;;9.35;0.60;;;14.50;99.90;;;;;;5068379;28;20029;-77
2022/11/09 11:43:01;;;;;;;5.25;1.08;;;14.60;99.90;;;;;;5070714;28;20103;-77
2022/11/09 11:45:51;;;;;;;8.43;0.60;;;14.70;99.90;;;;;;5072436;28;20021;-74
2022/11/09 11:48:53;;;;;;;5.40;0.50;;;14.70;99.90;;;;;;5048730;28;20412;-74
2022/11/09 11:51:31;;;;;;;6.78;0.55;;;14.70;99.90;;;;;;5064913;28;20399;-77
2022/11/09 11:54:26;;;;;;;9.25;0.50;;;14.70;99.90;;;;;;5063746;28;20036;-75
2022/11/09 11:57:18;;;;;;;5.28;0.47;;;14.70;99.90;;;;;;4992601;28;20042;-76
2022/11/09 12:00:16;;;;;;;8.93;0.50;;;14.70;99.90;;;;;;5020589;28;20083;-75
2022/11/09 12:03:26;;;;;;;4.80;0.40;;;14.80;99.90;;;;;;5043261;28;20029;-76
2022/11/09 12:06:15;;;;;;;2.50;0.40;;;14.90;99.90;;;;;;5032298;28;20017;-76
2022/11/09 12:09:18;;;;;;;11.75;0.70;;;14.80;99.90;;;;;;5030617;28;20075;-76
2022/11/09 12:12:14;;;;;;;6.80;0.50;;;14.80;99.90;;;;;;5030026;28;20465;-76
2022/11/09 12:15:15;;;;;;;9.75;0.85;;;14.70;99.90;;;;;;5026675;28;20630;-76
2022/11/09 12:18:08;;;;;;;5.47;0.70;;;14.70;99.90;;;;;;5007519;28;20685;-76
2022/11/09 12:20:53;;;;;;;6.00;0.73;;;14.70;99.90;;;;;;5026280;28;20021;-76
2022/11/09 12:23:34;;;;;;;3.97;0.43;;;14.90;99.90;;;;;;5017500;28;20468;-76
2022/11/09 12:26:22;;;;;;;6.35;0.50;;;14.90;99.90;;;;;;5044358;28;20544;-75
2022/11/09 12:29:14;;;;;;;5.90;0.60;;;14.90;99.90;;;;;;5027907;28;20057;-76
2022/11/09 12:32:03;;;;;;;6.00;0.40;;;14.90;99.90;;;;;;5028203;28;20049;-75
2022/11/09 12:34:48;;;;;;;5.97;0.60;;;15.00;99.90;;;;;;5028182;28;20044;-75
2022/11/09 12:37:19;;;;;;;3.78;0.30;;;15.00;99.90;;;;;;5031556;28;20060;-75
2022/11/09 12:39:47;;;;;;;5.88;0.40;;;15.00;99.90;;;;;;5031906;28;20435;-76
2022/11/09 12:42:20;;;;;;;4.28;0.52;;;14.90;99.90;;;;;;5030716;28;20053;-75
2022/11/09 12:45:23;;;;;;;6.82;0.60;;;14.90;99.90;;;;;;5024349;28;20053;-76
2022/11/09 12:47:53;;;;;;;5.43;0.70;;;14.80;99.90;;;;;;5013801;28;20033;-75
2022/11/09 12:50:22;;;;;;;6.10;0.47;;;14.70;99.90;;;;;;5025500;28;20081;-76
2022/11/09 12:52:51;;;;;;;6.63;0.60;;;14.70;99.90;;;;;;5028501;28;20026;-76
2022/11/09 12:55:36;;;;;;;6.05;0.50;;;14.70;99.90;;;;;;5037167;28;20036;-77
2022/11/09 12:58:02;;;;;;;2.38;0.30;;;14.70;99.90;;;;;;5049147;28;20029;-75
2022/11/09 13:00:34;;;;;;;5.15;0.40;;;14.70;99.90;;;;;;5074057;28;20047;-76
2022/11/09 13:03:03;;;;;;;6.07;0.40;;;14.70;99.90;;;;;;5074075;28;20111;-75
2022/11/09 13:05:36;;;;;;;5.93;0.50;;;14.60;99.90;;;;;;5070309;28;20083;-75